Bookmark and Share
Track history (hours):
 

Martin Challenger

More information available from US FCC via Universal Licensing System and Coast Guard Vessel Documentation Center.

Last reported at 2014-Apr-18 15:33 UTC. Time now 2014-Apr-19 00:03 UTC.
Position N 29°45' W 095°06'.

Length 20 m; draft 2.9 m.

MMSI: 366874920.

NotesDate/timePositionNaut miles runAvg speedWind from/ knotsBaromVisibWave heightAir tempDewpointWater temp
2014-Apr-18 15:33N 29°45' W 095°06'0 0.2
2014-Apr-18 14:33N 29°45' W 095°06'0 0.0
2014-Apr-18 13:33N 29°45' W 095°06'0 0.0
2014-Apr-18 12:33N 29°45' W 095°06'0 0.0
2014-Apr-18 11:13N 29°45' W 095°06'0 0.0
2014-Apr-18 01:12N 29°45' W 095°06'0 0.0
2014-Apr-18 00:32N 29°45' W 095°06'0 0.0
2014-Apr-17 23:33N 29°45' W 095°06'0 0.0
2014-Apr-17 22:33N 29°45' W 095°06'3 1.5
2014-Apr-17 20:23N 29°47' W 095°04'  
2014-Apr-14 21:33N 29°39' W 094°58'6 5.6
2014-Apr-14 20:33N 29°34' W 094°55'  
2014-Apr-11 21:25N 29°24' W 094°45'7 0.3
2014-Apr-11 02:04N 29°28' W 094°51'3 6.2
2014-Apr-11 01:33N 29°31' W 094°53'6 6.3
2014-Apr-11 00:33N 29°36' W 094°57'6 5.8
2014-Apr-10 23:33N 29°41' W 094°59'4 4.3
2014-Apr-10 22:33N 29°44' W 095°03'4 3.3
2014-Apr-10 21:29N 29°46' W 095°07'0 0.2
2014-Apr-10 20:11N 29°46' W 095°07'0 0.0
2014-Apr-10 18:32N 29°46' W 095°07'0 0.0
2014-Apr-10 17:28N 29°46' W 095°07'0 0.0
2014-Apr-10 16:30N 29°46' W 095°07'0 0.0
2014-Apr-10 15:33N 29°46' W 095°07'0 0.0
2014-Apr-10 14:19N 29°46' W 095°07'0 0.0
2014-Apr-10 13:28N 29°46' W 095°07'0 0.0
2014-Apr-10 12:26N 29°46' W 095°07'3 0.3
2014-Apr-10 02:33N 29°47' W 095°04'2 1.2
2014-Apr-10 00:32N 29°45' W 095°06'2 2.5
2014-Apr-09 23:33N 29°47' W 095°04'2 2.0
2014-Apr-09 22:30N 29°46' W 095°06'0 0.0
2014-Apr-09 21:33N 29°46' W 095°06'0 0.0
2014-Apr-09 20:26N 29°46' W 095°06'1 1.2
2014-Apr-09 19:33N 29°46' W 095°05'2 1.5
2014-Apr-09 18:28N 29°47' W 095°04'0 0.5
2014-Apr-09 17:33N 29°47' W 095°04'3 2.6
2014-Apr-09 16:29N 29°44' W 095°03'4 4.0
2014-Apr-09 15:33N 29°42' W 095°00'5 4.6
2014-Apr-09 14:33N 29°38' W 094°58'5 5.0
2014-Apr-09 13:33N 29°34' W 094°55'5 5.1
2014-Apr-09 12:31N 29°29' W 094°52'8 0.5
2014-Apr-08 20:12N 29°22' W 094°54'  

Dump ship's entire track history

sailing weather and tide predictions

Martin Challenger — WDB2346 — position and weather